sensor_id;sensor_type;location;lat;lon;timestamp;P1;durP1;ratioP1;P2;durP2;ratioP2
29938;SDS011;16799;50.844;5.304;2022-11-15T00:01:51;22.67;;;13.10;;
29938;SDS011;16799;50.844;5.304;2022-11-15T00:04:17;26.70;;;14.97;;
29938;SDS011;16799;50.844;5.304;2022-11-15T00:06:42;26.20;;;18.00;;
29938;SDS011;16799;50.844;5.304;2022-11-15T00:09:08;19.77;;;13.93;;
29938;SDS011;16799;50.844;5.304;2022-11-15T00:11:34;20.53;;;14.60;;
29938;SDS011;16799;50.844;5.304;2022-11-15T00:14:00;29.10;;;15.07;;
29938;SDS011;16799;50.844;5.304;2022-11-15T00:16:27;27.73;;;14.53;;
29938;SDS011;16799;50.844;5.304;2022-11-15T00:18:53;29.47;;;14.83;;
29938;SDS011;16799;50.844;5.304;2022-11-15T00:21:18;23.23;;;18.03;;
29938;SDS011;16799;50.844;5.304;2022-11-15T00:23:44;23.77;;;14.77;;
29938;SDS011;16799;50.844;5.304;2022-11-15T00:26:13;21.73;;;13.97;;
29938;SDS011;16799;50.844;5.304;2022-11-15T00:28:40;32.07;;;17.20;;
29938;SDS011;16799;50.844;5.304;2022-11-15T00:31:07;28.50;;;16.07;;
29938;SDS011;16799;50.844;5.304;2022-11-15T00:33:35;21.70;;;15.90;;
29938;SDS011;16799;50.844;5.304;2022-11-15T00:36:07;23.30;;;14.40;;
29938;SDS011;16799;50.844;5.304;2022-11-15T00:38:35;20.60;;;14.90;;
29938;SDS011;16799;50.844;5.304;2022-11-15T00:41:03;24.73;;;15.53;;
29938;SDS011;16799;50.844;5.304;2022-11-15T00:43:29;16.10;;;14.13;;
29938;SDS011;16799;50.844;5.304;2022-11-15T00:45:55;16.63;;;13.87;;
29938;SDS011;16799;50.844;5.304;2022-11-15T00:48:21;19.10;;;14.90;;
29938;SDS011;16799;50.844;5.304;2022-11-15T00:50:47;18.23;;;13.27;;
29938;SDS011;16799;50.844;5.304;2022-11-15T00:53:14;18.43;;;13.50;;
29938;SDS011;16799;50.844;5.304;2022-11-15T00:55:39;36.40;;;15.40;;
29938;SDS011;16799;50.844;5.304;2022-11-15T00:58:05;16.47;;;14.50;;
29938;SDS011;16799;50.844;5.304;2022-11-15T01:00:31;19.47;;;15.67;;
29938;SDS011;16799;50.844;5.304;2022-11-15T01:02:56;19.20;;;14.57;;
29938;SDS011;16799;50.844;5.304;2022-11-15T01:05:22;18.97;;;15.67;;
29938;SDS011;16799;50.844;5.304;2022-11-15T01:07:52;22.80;;;14.73;;
29938;SDS011;16799;50.844;5.304;2022-11-15T01:10:18;23.87;;;15.73;;
29938;SDS011;16799;50.844;5.304;2022-11-15T01:12:44;23.93;;;14.07;;
29938;SDS011;16799;50.844;5.304;2022-11-15T01:15:09;21.57;;;14.03;;
29938;SDS011;16799;50.844;5.304;2022-11-15T01:17:35;19.23;;;14.67;;
29938;SDS011;16799;50.844;5.304;2022-11-15T01:20:01;19.30;;;14.80;;
29938;SDS011;16799;50.844;5.304;2022-11-15T01:22:27;17.10;;;14.00;;
29938;SDS011;16799;50.844;5.304;2022-11-15T01:24:52;24.07;;;13.77;;
29938;SDS011;16799;50.844;5.304;2022-11-15T01:27:18;21.90;;;12.83;;
29938;SDS011;16799;50.844;5.304;2022-11-15T01:29:44;19.13;;;14.87;;
29938;SDS011;16799;50.844;5.304;2022-11-15T01:32:09;21.57;;;16.43;;
29938;SDS011;16799;50.844;5.304;2022-11-15T01:34:35;15.77;;;13.03;;
29938;SDS011;16799;50.844;5.304;2022-11-15T01:37:01;20.03;;;14.40;;
29938;SDS011;16799;50.844;5.304;2022-11-15T01:39:27;20.07;;;14.80;;
29938;SDS011;16799;50.844;5.304;2022-11-15T01:41:52;24.37;;;14.03;;
29938;SDS011;16799;50.844;5.304;2022-11-15T01:46:59;22.27;;;14.67;;
29938;SDS011;16799;50.844;5.304;2022-11-15T01:49:27;22.33;;;14.03;;
29938;SDS011;16799;50.844;5.304;2022-11-15T01:51:57;20.57;;;13.87;;
29938;SDS011;16799;50.844;5.304;2022-11-15T01:54:25;27.10;;;16.50;;
29938;SDS011;16799;50.844;5.304;2022-11-15T01:57:01;23.07;;;14.37;;
29938;SDS011;16799;50.844;5.304;2022-11-15T01:59:31;21.87;;;13.50;;
29938;SDS011;16799;50.844;5.304;2022-11-15T02:01:58;28.33;;;14.50;;
29938;SDS011;16799;50.844;5.304;2022-11-15T02:04:24;20.27;;;13.07;;
29938;SDS011;16799;50.844;5.304;2022-11-15T02:06:52;22.37;;;15.80;;
29938;SDS011;16799;50.844;5.304;2022-11-15T02:09:18;18.50;;;12.90;;
29938;SDS011;16799;50.844;5.304;2022-11-15T02:11:44;24.60;;;13.93;;
29938;SDS011;16799;50.844;5.304;2022-11-15T02:14:12;26.43;;;12.60;;
29938;SDS011;16799;50.844;5.304;2022-11-15T02:16:49;18.80;;;13.23;;
29938;SDS011;16799;50.844;5.304;2022-11-15T02:32:48;18.50;;;12.47;;
29938;SDS011;16799;50.844;5.304;2022-11-15T02:35:37;20.70;;;12.17;;
29938;SDS011;16799;50.844;5.304;2022-11-15T02:40:43;13.60;;;11.00;;
29938;SDS011;16799;50.844;5.304;2022-11-15T02:43:17;15.87;;;11.20;;
29938;SDS011;16799;50.844;5.304;2022-11-15T02:49:18;22.23;;;11.43;;
29938;SDS011;16799;50.844;5.304;2022-11-15T02:51:45;11.80;;;10.10;;
29938;SDS011;16799;50.844;5.304;2022-11-15T02:54:28;19.53;;;12.23;;
29938;SDS011;16799;50.844;5.304;2022-11-15T02:56:56;20.73;;;11.33;;
29938;SDS011;16799;50.844;5.304;2022-11-15T03:02:48;16.77;;;10.03;;
29938;SDS011;16799;50.844;5.304;2022-11-15T03:08:58;11.47;;;10.10;;
29938;SDS011;16799;50.844;5.304;2022-11-15T03:11:21;12.03;;;10.90;;
29938;SDS011;16799;50.844;5.304;2022-11-15T03:16:37;13.27;;;10.60;;
29938;SDS011;16799;50.844;5.304;2022-11-15T03:21:42;12.93;;;11.57;;
29938;SDS011;16799;50.844;5.304;2022-11-15T03:24:09;15.93;;;10.80;;
29938;SDS011;16799;50.844;5.304;2022-11-15T03:26:36;13.80;;;10.73;;
29938;SDS011;16799;50.844;5.304;2022-11-15T03:29:16;10.90;;;9.90;;
29938;SDS011;16799;50.844;5.304;2022-11-15T03:31:48;14.13;;;11.60;;
29938;SDS011;16799;50.844;5.304;2022-11-15T03:36:52;13.93;;;11.00;;
29938;SDS011;16799;50.844;5.304;2022-11-15T03:39:18;19.47;;;11.50;;
29938;SDS011;16799;50.844;5.304;2022-11-15T03:41:56;14.90;;;10.43;;
29938;SDS011;16799;50.844;5.304;2022-11-15T03:47:08;15.73;;;9.30;;
29938;SDS011;16799;50.844;5.304;2022-11-15T03:49:40;21.03;;;11.50;;
29938;SDS011;16799;50.844;5.304;2022-11-15T03:52:10;12.80;;;11.50;;
29938;SDS011;16799;50.844;5.304;2022-11-15T03:54:36;19.80;;;10.93;;
29938;SDS011;16799;50.844;5.304;2022-11-15T03:57:12;13.30;;;11.23;;
29938;SDS011;16799;50.844;5.304;2022-11-15T03:59:37;12.40;;;10.33;;
29938;SDS011;16799;50.844;5.304;2022-11-15T04:02:03;11.13;;;9.23;;
29938;SDS011;16799;50.844;5.304;2022-11-15T04:04:29;20.70;;;9.63;;
29938;SDS011;16799;50.844;5.304;2022-11-15T04:06:54;11.67;;;9.17;;
29938;SDS011;16799;50.844;5.304;2022-11-15T04:09:20;11.37;;;9.60;;
29938;SDS011;16799;50.844;5.304;2022-11-15T04:11:45;19.43;;;11.50;;
29938;SDS011;16799;50.844;5.304;2022-11-15T04:14:11;11.73;;;10.50;;
29938;SDS011;16799;50.844;5.304;2022-11-15T04:16:37;11.10;;;9.90;;
29938;SDS011;16799;50.844;5.304;2022-11-15T04:19:02;14.03;;;11.53;;
29938;SDS011;16799;50.844;5.304;2022-11-15T04:21:46;12.23;;;10.47;;
29938;SDS011;16799;50.844;5.304;2022-11-15T04:24:30;24.17;;;12.43;;
29938;SDS011;16799;50.844;5.304;2022-11-15T04:26:56;14.73;;;11.43;;
29938;SDS011;16799;50.844;5.304;2022-11-15T04:29:22;13.80;;;11.90;;
29938;SDS011;16799;50.844;5.304;2022-11-15T04:32:00;11.90;;;10.30;;
29938;SDS011;16799;50.844;5.304;2022-11-15T04:34:30;18.60;;;13.27;;
29938;SDS011;16799;50.844;5.304;2022-11-15T04:36:55;19.13;;;11.83;;
29938;SDS011;16799;50.844;5.304;2022-11-15T04:39:36;13.70;;;10.47;;
29938;SDS011;16799;50.844;5.304;2022-11-15T04:42:02;16.90;;;12.30;;
29938;SDS011;16799;50.844;5.304;2022-11-15T04:44:28;13.00;;;9.40;;
29938;SDS011;16799;50.844;5.304;2022-11-15T04:46:54;4.70;;;4.13;;
29938;SDS011;16799;50.844;5.304;2022-11-15T04:49:20;3.03;;;2.83;;
29938;SDS011;16799;50.844;5.304;2022-11-15T04:51:45;7.43;;;3.70;;
29938;SDS011;16799;50.844;5.304;2022-11-15T04:54:11;5.70;;;3.70;;
29938;SDS011;16799;50.844;5.304;2022-11-15T04:56:37;5.83;;;3.60;;
29938;SDS011;16799;50.844;5.304;2022-11-15T04:59:02;4.40;;;3.57;;
29938;SDS011;16799;50.844;5.304;2022-11-15T05:01:28;4.07;;;3.77;;
29938;SDS011;16799;50.844;5.304;2022-11-15T05:03:54;5.57;;;3.60;;
29938;SDS011;16799;50.844;5.304;2022-11-15T05:06:38;6.67;;;4.40;;
29938;SDS011;16799;50.844;5.304;2022-11-15T05:09:04;5.33;;;4.03;;
29938;SDS011;16799;50.844;5.304;2022-11-15T05:11:30;7.87;;;4.40;;
29938;SDS011;16799;50.844;5.304;2022-11-15T05:13:55;4.17;;;3.77;;
29938;SDS011;16799;50.844;5.304;2022-11-15T05:16:21;5.87;;;3.17;;
29938;SDS011;16799;50.844;5.304;2022-11-15T05:18:50;4.00;;;3.70;;
29938;SDS011;16799;50.844;5.304;2022-11-15T05:21:16;3.93;;;3.53;;
29938;SDS011;16799;50.844;5.304;2022-11-15T05:23:43;4.17;;;3.53;;
29938;SDS011;16799;50.844;5.304;2022-11-15T05:26:08;3.53;;;2.63;;
29938;SDS011;16799;50.844;5.304;2022-11-15T05:28:35;4.73;;;3.00;;
29938;SDS011;16799;50.844;5.304;2022-11-15T05:31:02;7.53;;;3.10;;
29938;SDS011;16799;50.844;5.304;2022-11-15T05:33:41;4.27;;;3.93;;
29938;SDS011;16799;50.844;5.304;2022-11-15T05:36:20;3.40;;;3.10;;
29938;SDS011;16799;50.844;5.304;2022-11-15T05:38:50;3.97;;;3.57;;
29938;SDS011;16799;50.844;5.304;2022-11-15T05:41:17;4.80;;;3.80;;
29938;SDS011;16799;50.844;5.304;2022-11-15T05:43:45;8.47;;;4.07;;
29938;SDS011;16799;50.844;5.304;2022-11-15T05:46:13;9.03;;;2.90;;
29938;SDS011;16799;50.844;5.304;2022-11-15T05:48:40;3.63;;;3.43;;
29938;SDS011;16799;50.844;5.304;2022-11-15T05:51:10;4.70;;;3.77;;
29938;SDS011;16799;50.844;5.304;2022-11-15T05:53:38;9.27;;;4.93;;
29938;SDS011;16799;50.844;5.304;2022-11-15T05:56:04;7.57;;;4.60;;
29938;SDS011;16799;50.844;5.304;2022-11-15T05:58:34;6.90;;;5.60;;
29938;SDS011;16799;50.844;5.304;2022-11-15T06:01:01;5.13;;;4.67;;
29938;SDS011;16799;50.844;5.304;2022-11-15T06:03:27;8.43;;;4.97;;
29938;SDS011;16799;50.844;5.304;2022-11-15T06:05:53;6.03;;;5.20;;
29938;SDS011;16799;50.844;5.304;2022-11-15T06:08:19;7.47;;;4.27;;
29938;SDS011;16799;50.844;5.304;2022-11-15T06:10:44;6.53;;;5.13;;
29938;SDS011;16799;50.844;5.304;2022-11-15T06:13:10;5.30;;;4.83;;
29938;SDS011;16799;50.844;5.304;2022-11-15T06:15:36;7.43;;;4.80;;
29938;SDS011;16799;50.844;5.304;2022-11-15T06:18:01;4.73;;;4.00;;
29938;SDS011;16799;50.844;5.304;2022-11-15T06:20:28;4.87;;;4.30;;
29938;SDS011;16799;50.844;5.304;2022-11-15T06:23:01;7.70;;;3.67;;
29938;SDS011;16799;50.844;5.304;2022-11-15T06:25:28;3.80;;;3.50;;
29938;SDS011;16799;50.844;5.304;2022-11-15T06:27:55;3.97;;;3.57;;
29938;SDS011;16799;50.844;5.304;2022-11-15T06:30:22;4.63;;;4.13;;
29938;SDS011;16799;50.844;5.304;2022-11-15T06:32:50;6.90;;;3.40;;
29938;SDS011;16799;50.844;5.304;2022-11-15T06:35:15;3.87;;;3.43;;
29938;SDS011;16799;50.844;5.304;2022-11-15T06:37:41;3.87;;;3.67;;
29938;SDS011;16799;50.844;5.304;2022-11-15T06:40:08;4.93;;;3.63;;
29938;SDS011;16799;50.844;5.304;2022-11-15T06:42:34;8.40;;;5.30;;
29938;SDS011;16799;50.844;5.304;2022-11-15T06:45:00;12.83;;;6.43;;
29938;SDS011;16799;50.844;5.304;2022-11-15T06:47:26;6.73;;;5.43;;
29938;SDS011;16799;50.844;5.304;2022-11-15T06:49:52;41.20;;;20.30;;
29938;SDS011;16799;50.844;5.304;2022-11-15T06:52:18;34.80;;;14.80;;
29938;SDS011;16799;50.844;5.304;2022-11-15T06:54:44;7.17;;;6.53;;
29938;SDS011;16799;50.844;5.304;2022-11-15T06:57:10;5.93;;;4.40;;
29938;SDS011;16799;50.844;5.304;2022-11-15T06:59:36;31.33;;;12.30;;
29938;SDS011;16799;50.844;5.304;2022-11-15T07:02:02;56.13;;;26.73;;
29938;SDS011;16799;50.844;5.304;2022-11-15T07:04:28;44.00;;;21.17;;
29938;SDS011;16799;50.844;5.304;2022-11-15T07:06:54;19.03;;;13.67;;
29938;SDS011;16799;50.844;5.304;2022-11-15T07:09:19;33.00;;;19.23;;
29938;SDS011;16799;50.844;5.304;2022-11-15T07:11:45;33.43;;;20.70;;
29938;SDS011;16799;50.844;5.304;2022-11-15T07:14:10;18.50;;;12.43;;
29938;SDS011;16799;50.844;5.304;2022-11-15T07:16:36;9.57;;;8.57;;
29938;SDS011;16799;50.844;5.304;2022-11-15T07:19:02;14.90;;;12.07;;
29938;SDS011;16799;50.844;5.304;2022-11-15T07:21:28;10.40;;;8.60;;
29938;SDS011;16799;50.844;5.304;2022-11-15T07:23:54;11.00;;;7.00;;
29938;SDS011;16799;50.844;5.304;2022-11-15T07:26:20;5.90;;;5.50;;
29938;SDS011;16799;50.844;5.304;2022-11-15T07:28:46;9.23;;;5.90;;
29938;SDS011;16799;50.844;5.304;2022-11-15T07:31:12;7.50;;;6.87;;
29938;SDS011;16799;50.844;5.304;2022-11-15T07:33:37;14.20;;;12.03;;
29938;SDS011;16799;50.844;5.304;2022-11-15T07:36:04;36.00;;;19.20;;
29938;SDS011;16799;50.844;5.304;2022-11-15T07:38:31;33.53;;;18.47;;
29938;SDS011;16799;50.844;5.304;2022-11-15T07:41:01;31.00;;;18.00;;
29938;SDS011;16799;50.844;5.304;2022-11-15T07:43:29;6.67;;;6.07;;
29938;SDS011;16799;50.844;5.304;2022-11-15T07:45:57;7.40;;;6.77;;
29938;SDS011;16799;50.844;5.304;2022-11-15T07:48:23;19.50;;;14.20;;
29938;SDS011;16799;50.844;5.304;2022-11-15T07:50:49;9.60;;;7.10;;
29938;SDS011;16799;50.844;5.304;2022-11-15T07:53:14;8.83;;;5.63;;
29938;SDS011;16799;50.844;5.304;2022-11-15T07:55:41;7.27;;;6.60;;
29938;SDS011;16799;50.844;5.304;2022-11-15T07:58:08;11.03;;;9.07;;
29938;SDS011;16799;50.844;5.304;2022-11-15T08:00:35;12.20;;;9.50;;
29938;SDS011;16799;50.844;5.304;2022-11-15T08:03:11;8.40;;;7.53;;
29938;SDS011;16799;50.844;5.304;2022-11-15T08:05:38;7.70;;;5.80;;
29938;SDS011;16799;50.844;5.304;2022-11-15T08:08:05;5.33;;;4.50;;
29938;SDS011;16799;50.844;5.304;2022-11-15T08:10:32;15.53;;;7.23;;
29938;SDS011;16799;50.844;5.304;2022-11-15T08:15:25;4.53;;;4.13;;
29938;SDS011;16799;50.844;5.304;2022-11-15T08:17:55;4.77;;;4.37;;
29938;SDS011;16799;50.844;5.304;2022-11-15T08:20:22;4.97;;;3.87;;
29938;SDS011;16799;50.844;5.304;2022-11-15T08:22:48;5.30;;;3.43;;
29938;SDS011;16799;50.844;5.304;2022-11-15T08:25:14;3.40;;;3.10;;
29938;SDS011;16799;50.844;5.304;2022-11-15T08:27:40;5.33;;;2.00;;
29938;SDS011;16799;50.844;5.304;2022-11-15T08:30:06;5.20;;;2.17;;
29938;SDS011;16799;50.844;5.304;2022-11-15T08:32:32;9.50;;;2.67;;
29938;SDS011;16799;50.844;5.304;2022-11-15T08:34:58;8.73;;;1.73;;
29938;SDS011;16799;50.844;5.304;2022-11-15T08:37:23;1.80;;;1.67;;
29938;SDS011;16799;50.844;5.304;2022-11-15T08:39:49;1.97;;;1.83;;
29938;SDS011;16799;50.844;5.304;2022-11-15T08:42:15;5.57;;;1.73;;
29938;SDS011;16799;50.844;5.304;2022-11-15T08:44:41;5.63;;;1.93;;
29938;SDS011;16799;50.844;5.304;2022-11-15T08:47:07;3.00;;;2.17;;
29938;SDS011;16799;50.844;5.304;2022-11-15T08:49:35;7.97;;;2.77;;
29938;SDS011;16799;50.844;5.304;2022-11-15T08:52:01;7.00;;;2.60;;
29938;SDS011;16799;50.844;5.304;2022-11-15T08:54:27;1.60;;;1.50;;
29938;SDS011;16799;50.844;5.304;2022-11-15T08:56:52;4.03;;;2.43;;
29938;SDS011;16799;50.844;5.304;2022-11-15T08:59:18;5.67;;;1.73;;
29938;SDS011;16799;50.844;5.304;2022-11-15T09:01:43;5.80;;;2.30;;
29938;SDS011;16799;50.844;5.304;2022-11-15T09:04:09;3.80;;;2.70;;
29938;SDS011;16799;50.844;5.304;2022-11-15T09:06:35;4.80;;;1.57;;
29938;SDS011;16799;50.844;5.304;2022-11-15T09:09:01;10.27;;;2.13;;
29938;SDS011;16799;50.844;5.304;2022-11-15T09:11:27;9.33;;;2.87;;
29938;SDS011;16799;50.844;5.304;2022-11-15T09:13:53;11.47;;;3.43;;
29938;SDS011;16799;50.844;5.304;2022-11-15T09:16:19;9.13;;;2.10;;
29938;SDS011;16799;50.844;5.304;2022-11-15T09:18:45;4.97;;;2.40;;
29938;SDS011;16799;50.844;5.304;2022-11-15T09:21:10;6.67;;;2.70;;
29938;SDS011;16799;50.844;5.304;2022-11-15T09:23:37;8.73;;;2.43;;
29938;SDS011;16799;50.844;5.304;2022-11-15T09:26:04;11.90;;;5.53;;
29938;SDS011;16799;50.844;5.304;2022-11-15T09:28:30;7.53;;;2.13;;
29938;SDS011;16799;50.844;5.304;2022-11-15T09:30:58;10.63;;;2.67;;
29938;SDS011;16799;50.844;5.304;2022-11-15T09:33:24;2.77;;;1.33;;
29938;SDS011;16799;50.844;5.304;2022-11-15T09:35:51;7.53;;;2.10;;
29938;SDS011;16799;50.844;5.304;2022-11-15T09:38:17;3.20;;;1.30;;
29938;SDS011;16799;50.844;5.304;2022-11-15T09:40:43;4.03;;;2.10;;
29938;SDS011;16799;50.844;5.304;2022-11-15T09:43:20;2.77;;;2.53;;
29938;SDS011;16799;50.844;5.304;2022-11-15T09:48:50;2.77;;;1.80;;
29938;SDS011;16799;50.844;5.304;2022-11-15T09:51:22;7.80;;;4.10;;
29938;SDS011;16799;50.844;5.304;2022-11-15T09:54:08;3.23;;;2.67;;
29938;SDS011;16799;50.844;5.304;2022-11-15T09:56:41;6.00;;;2.90;;
29938;SDS011;16799;50.844;5.304;2022-11-15T10:04:40;4.23;;;2.30;;
29938;SDS011;16799;50.844;5.304;2022-11-15T10:10:02;15.23;;;4.90;;
29938;SDS011;16799;50.844;5.304;2022-11-15T10:12:38;8.70;;;1.73;;
29938;SDS011;16799;50.844;5.304;2022-11-15T10:15:11;5.73;;;2.83;;
29938;SDS011;16799;50.844;5.304;2022-11-15T10:17:55;9.43;;;3.30;;
29938;SDS011;16799;50.844;5.304;2022-11-15T10:20:27;4.47;;;3.20;;
29938;SDS011;16799;50.844;5.304;2022-11-15T10:22:56;4.43;;;2.00;;
29938;SDS011;16799;50.844;5.304;2022-11-15T10:25:28;8.70;;;2.57;;
29938;SDS011;16799;50.844;5.304;2022-11-15T10:27:59;2.50;;;2.23;;
29938;SDS011;16799;50.844;5.304;2022-11-15T10:30:40;21.47;;;2.27;;
29938;SDS011;16799;50.844;5.304;2022-11-15T10:33:10;15.77;;;4.33;;
29938;SDS011;16799;50.844;5.304;2022-11-15T10:35:46;6.10;;;2.77;;
29938;SDS011;16799;50.844;5.304;2022-11-15T10:38:12;9.20;;;4.30;;
29938;SDS011;16799;50.844;5.304;2022-11-15T10:40:38;7.03;;;4.20;;
29938;SDS011;16799;50.844;5.304;2022-11-15T10:45:41;14.67;;;6.17;;
29938;SDS011;16799;50.844;5.304;2022-11-15T10:50:39;4.90;;;3.10;;
29938;SDS011;16799;50.844;5.304;2022-11-15T10:56:11;4.37;;;2.50;;
29938;SDS011;16799;50.844;5.304;2022-11-15T10:58:44;8.37;;;3.50;;
29938;SDS011;16799;50.844;5.304;2022-11-15T11:03:58;10.00;;;3.20;;
29938;SDS011;16799;50.844;5.304;2022-11-15T11:06:28;6.43;;;3.90;;
29938;SDS011;16799;50.844;5.304;2022-11-15T11:09:02;6.93;;;2.40;;
29938;SDS011;16799;50.844;5.304;2022-11-15T11:16:52;20.30;;;4.03;;
29938;SDS011;16799;50.844;5.304;2022-11-15T11:27:43;2.50;;;1.43;;
29938;SDS011;16799;50.844;5.304;2022-11-15T11:33:18;3.47;;;1.33;;
29938;SDS011;16799;50.844;5.304;2022-11-15T11:44:32;3.97;;;1.70;;
29938;SDS011;16799;50.844;5.304;2022-11-15T11:47:28;10.30;;;1.53;;
29938;SDS011;16799;50.844;5.304;2022-11-15T11:50:00;7.37;;;1.63;;
29938;SDS011;16799;50.844;5.304;2022-11-15T11:52:43;4.20;;;1.27;;
29938;SDS011;16799;50.844;5.304;2022-11-15T11:55:15;4.23;;;1.50;;
29938;SDS011;16799;50.844;5.304;2022-11-15T11:58:34;4.80;;;1.43;;
29938;SDS011;16799;50.844;5.304;2022-11-15T12:00:50;8.57;;;1.60;;
29938;SDS011;16799;50.844;5.304;2022-11-15T12:06:24;8.80;;;1.87;;
29938;SDS011;16799;50.844;5.304;2022-11-15T12:08:53;1.63;;;0.97;;
29938;SDS011;16799;50.844;5.304;2022-11-15T12:11:58;2.03;;;1.03;;
29938;SDS011;16799;50.844;5.304;2022-11-15T12:14:55;9.57;;;1.80;;
29938;SDS011;16799;50.844;5.304;2022-11-15T12:17:23;10.70;;;1.77;;
29938;SDS011;16799;50.844;5.304;2022-11-15T12:19:51;10.23;;;3.00;;
29938;SDS011;16799;50.844;5.304;2022-11-15T12:29:58;5.03;;;2.30;;
29938;SDS011;16799;50.844;5.304;2022-11-15T12:32:33;5.90;;;3.40;;
29938;SDS011;16799;50.844;5.304;2022-11-15T12:35:03;17.07;;;3.50;;
29938;SDS011;16799;50.844;5.304;2022-11-15T12:37:47;6.23;;;1.67;;
29938;SDS011;16799;50.844;5.304;2022-11-15T12:40:30;4.07;;;2.33;;
29938;SDS011;16799;50.844;5.304;2022-11-15T12:43:34;9.20;;;4.10;;
29938;SDS011;16799;50.844;5.304;2022-11-15T12:48:59;3.63;;;1.73;;
29938;SDS011;16799;50.844;5.304;2022-11-15T12:52:10;5.63;;;2.73;;
29938;SDS011;16799;50.844;5.304;2022-11-15T13:02:36;5.83;;;2.23;;
29938;SDS011;16799;50.844;5.304;2022-11-15T13:17:39;11.53;;;2.37;;
29938;SDS011;16799;50.844;5.304;2022-11-15T13:22:47;8.23;;;3.33;;
29938;SDS011;16799;50.844;5.304;2022-11-15T13:33:15;1.67;;;1.57;;
29938;SDS011;16799;50.844;5.304;2022-11-15T13:35:55;3.07;;;1.50;;
29938;SDS011;16799;50.844;5.304;2022-11-15T13:40:49;4.50;;;1.60;;
29938;SDS011;16799;50.844;5.304;2022-11-15T13:48:32;2.00;;;0.87;;
29938;SDS011;16799;50.844;5.304;2022-11-15T13:50:58;1.20;;;1.10;;
29938;SDS011;16799;50.844;5.304;2022-11-15T13:53:26;3.73;;;1.50;;
29938;SDS011;16799;50.844;5.304;2022-11-15T13:55:52;1.57;;;1.10;;
29938;SDS011;16799;50.844;5.304;2022-11-15T13:58:20;2.00;;;1.43;;
29938;SDS011;16799;50.844;5.304;2022-11-15T14:00:46;2.57;;;2.37;;
29938;SDS011;16799;50.844;5.304;2022-11-15T14:03:16;8.03;;;1.60;;
29938;SDS011;16799;50.844;5.304;2022-11-15T14:06:19;2.50;;;2.13;;
29938;SDS011;16799;50.844;5.304;2022-11-15T14:08:40;6.50;;;1.80;;
29938;SDS011;16799;50.844;5.304;2022-11-15T14:11:24;2.00;;;1.90;;
29938;SDS011;16799;50.844;5.304;2022-11-15T14:14:25;2.13;;;1.93;;
29938;SDS011;16799;50.844;5.304;2022-11-15T14:16:45;8.60;;;2.60;;
29938;SDS011;16799;50.844;5.304;2022-11-15T14:19:33;3.37;;;1.40;;
29938;SDS011;16799;50.844;5.304;2022-11-15T14:30:53;1.57;;;1.40;;
29938;SDS011;16799;50.844;5.304;2022-11-15T14:33:31;2.50;;;1.57;;
29938;SDS011;16799;50.844;5.304;2022-11-15T14:36:05;1.70;;;1.30;;
29938;SDS011;16799;50.844;5.304;2022-11-15T14:38:42;1.23;;;1.13;;
29938;SDS011;16799;50.844;5.304;2022-11-15T14:41:16;1.43;;;1.33;;
29938;SDS011;16799;50.844;5.304;2022-11-15T14:43:50;3.87;;;3.00;;
29938;SDS011;16799;50.844;5.304;2022-11-15T14:46:17;6.10;;;1.33;;
29938;SDS011;16799;50.844;5.304;2022-11-15T14:48:43;1.40;;;1.30;;
29938;SDS011;16799;50.844;5.304;2022-11-15T14:51:18;2.80;;;2.60;;
29938;SDS011;16799;50.844;5.304;2022-11-15T14:53:44;2.17;;;1.90;;
29938;SDS011;16799;50.844;5.304;2022-11-15T14:56:11;2.20;;;2.00;;
29938;SDS011;16799;50.844;5.304;2022-11-15T14:58:37;7.37;;;2.43;;
29938;SDS011;16799;50.844;5.304;2022-11-15T15:01:08;10.30;;;2.20;;
29938;SDS011;16799;50.844;5.304;2022-11-15T15:03:42;1.63;;;1.40;;
29938;SDS011;16799;50.844;5.304;2022-11-15T15:06:09;13.20;;;2.40;;
29938;SDS011;16799;50.844;5.304;2022-11-15T15:08:35;2.37;;;1.90;;
29938;SDS011;16799;50.844;5.304;2022-11-15T15:11:00;1.67;;;1.20;;
29938;SDS011;16799;50.844;5.304;2022-11-15T15:13:26;3.30;;;1.80;;
29938;SDS011;16799;50.844;5.304;2022-11-15T15:15:53;3.93;;;1.43;;
29938;SDS011;16799;50.844;5.304;2022-11-15T15:18:19;1.70;;;1.60;;
29938;SDS011;16799;50.844;5.304;2022-11-15T15:20:45;2.83;;;1.80;;
29938;SDS011;16799;50.844;5.304;2022-11-15T15:23:21;1.73;;;1.50;;
29938;SDS011;16799;50.844;5.304;2022-11-15T15:25:49;8.97;;;2.20;;
29938;SDS011;16799;50.844;5.304;2022-11-15T15:28:15;3.00;;;2.07;;
29938;SDS011;16799;50.844;5.304;2022-11-15T15:30:41;2.50;;;1.70;;
29938;SDS011;16799;50.844;5.304;2022-11-15T15:33:06;7.63;;;2.50;;
29938;SDS011;16799;50.844;5.304;2022-11-15T15:35:33;4.20;;;1.53;;
29938;SDS011;16799;50.844;5.304;2022-11-15T15:38:00;3.27;;;1.50;;
29938;SDS011;16799;50.844;5.304;2022-11-15T15:40:27;2.10;;;1.40;;
29938;SDS011;16799;50.844;5.304;2022-11-15T15:42:54;2.83;;;2.00;;
29938;SDS011;16799;50.844;5.304;2022-11-15T15:45:20;1.87;;;1.77;;
29938;SDS011;16799;50.844;5.304;2022-11-15T15:47:45;2.20;;;2.00;;
29938;SDS011;16799;50.844;5.304;2022-11-15T15:50:25;1.70;;;1.60;;
29938;SDS011;16799;50.844;5.304;2022-11-15T15:52:54;2.10;;;2.00;;
29938;SDS011;16799;50.844;5.304;2022-11-15T15:55:21;13.30;;;5.73;;
29938;SDS011;16799;50.844;5.304;2022-11-15T15:57:48;4.13;;;3.20;;
29938;SDS011;16799;50.844;5.304;2022-11-15T16:00:14;3.30;;;2.67;;
29938;SDS011;16799;50.844;5.304;2022-11-15T16:02:40;4.23;;;3.90;;
29938;SDS011;16799;50.844;5.304;2022-11-15T16:05:06;3.77;;;3.40;;
29938;SDS011;16799;50.844;5.304;2022-11-15T16:07:33;7.90;;;3.97;;
29938;SDS011;16799;50.844;5.304;2022-11-15T16:09:59;3.30;;;3.00;;
29938;SDS011;16799;50.844;5.304;2022-11-15T16:12:25;7.03;;;2.83;;
29938;SDS011;16799;50.844;5.304;2022-11-15T16:14:55;6.53;;;4.53;;
29938;SDS011;16799;50.844;5.304;2022-11-15T16:17:21;7.90;;;4.50;;
29938;SDS011;16799;50.844;5.304;2022-11-15T16:19:49;6.23;;;5.63;;
29938;SDS011;16799;50.844;5.304;2022-11-15T16:22:15;7.70;;;7.20;;
29938;SDS011;16799;50.844;5.304;2022-11-15T16:24:41;9.80;;;8.13;;
29938;SDS011;16799;50.844;5.304;2022-11-15T16:27:17;9.00;;;8.10;;
29938;SDS011;16799;50.844;5.304;2022-11-15T16:29:44;5.90;;;4.27;;
29938;SDS011;16799;50.844;5.304;2022-11-15T16:32:11;7.70;;;3.00;;
29938;SDS011;16799;50.844;5.304;2022-11-15T16:34:37;3.60;;;3.30;;
29938;SDS011;16799;50.844;5.304;2022-11-15T16:37:03;3.87;;;3.20;;
29938;SDS011;16799;50.844;5.304;2022-11-15T16:39:30;4.60;;;4.10;;
29938;SDS011;16799;50.844;5.304;2022-11-15T16:41:56;5.10;;;3.93;;
29938;SDS011;16799;50.844;5.304;2022-11-15T16:44:22;4.07;;;3.50;;
29938;SDS011;16799;50.844;5.304;2022-11-15T16:46:49;4.13;;;3.83;;
29938;SDS011;16799;50.844;5.304;2022-11-15T16:49:18;10.23;;;4.10;;
29938;SDS011;16799;50.844;5.304;2022-11-15T16:51:45;8.30;;;5.03;;
29938;SDS011;16799;50.844;5.304;2022-11-15T16:54:12;2.90;;;2.70;;
29938;SDS011;16799;50.844;5.304;2022-11-15T16:56:38;4.67;;;4.03;;
29938;SDS011;16799;50.844;5.304;2022-11-15T16:59:04;4.73;;;4.30;;
29938;SDS011;16799;50.844;5.304;2022-11-15T17:01:31;4.47;;;4.20;;
29938;SDS011;16799;50.844;5.304;2022-11-15T17:03:59;5.83;;;5.07;;
29938;SDS011;16799;50.844;5.304;2022-11-15T17:06:37;5.03;;;4.63;;
29938;SDS011;16799;50.844;5.304;2022-11-15T17:09:03;4.30;;;4.10;;
29938;SDS011;16799;50.844;5.304;2022-11-15T17:11:29;3.97;;;3.77;;
29938;SDS011;16799;50.844;5.304;2022-11-15T17:13:58;8.00;;;4.63;;
29938;SDS011;16799;50.844;5.304;2022-11-15T17:16:24;5.30;;;4.90;;
29938;SDS011;16799;50.844;5.304;2022-11-15T17:18:50;8.60;;;6.40;;
29938;SDS011;16799;50.844;5.304;2022-11-15T17:21:17;6.77;;;5.50;;